sensor_id;sensor_type;location;lat;lon;timestamp;P1;durP1;ratioP1;P2;durP2;ratioP2
49440;SDS011;35317;51.978;6.296;2022-12-07T00:02:46;54.30;;;29.48;;
49440;SDS011;35317;51.978;6.296;2022-12-07T00:07:47;53.70;;;27.23;;
49440;SDS011;35317;51.978;6.296;2022-12-07T00:12:47;46.70;;;26.77;;
49440;SDS011;35317;51.978;6.296;2022-12-07T00:17:48;46.40;;;26.80;;
49440;SDS011;35317;51.978;6.296;2022-12-07T00:22:49;51.33;;;26.92;;
49440;SDS011;35317;51.978;6.296;2022-12-07T00:27:50;48.55;;;25.65;;
49440;SDS011;35317;51.978;6.296;2022-12-07T00:32:52;40.20;;;22.95;;
49440;SDS011;35317;51.978;6.296;2022-12-07T00:37:53;51.47;;;24.52;;
49440;SDS011;35317;51.978;6.296;2022-12-07T00:42:54;44.63;;;24.75;;
49440;SDS011;35317;51.978;6.296;2022-12-07T00:47:54;46.30;;;23.70;;
49440;SDS011;35317;51.978;6.296;2022-12-07T00:52:55;49.92;;;24.88;;
49440;SDS011;35317;51.978;6.296;2022-12-07T00:57:56;47.85;;;24.10;;
49440;SDS011;35317;51.978;6.296;2022-12-07T01:02:57;41.42;;;21.90;;
49440;SDS011;35317;51.978;6.296;2022-12-07T01:07:57;42.58;;;21.02;;
49440;SDS011;35317;51.978;6.296;2022-12-07T01:12:58;37.92;;;20.40;;
49440;SDS011;35317;51.978;6.296;2022-12-07T01:17:59;34.22;;;17.63;;
49440;SDS011;35317;51.978;6.296;2022-12-07T01:23:00;35.92;;;17.48;;
49440;SDS011;35317;51.978;6.296;2022-12-07T01:28:01;32.33;;;17.83;;
49440;SDS011;35317;51.978;6.296;2022-12-07T01:33:01;37.03;;;15.27;;
49440;SDS011;35317;51.978;6.296;2022-12-07T01:38:02;27.38;;;16.38;;
49440;SDS011;35317;51.978;6.296;2022-12-07T01:43:04;32.65;;;15.63;;
49440;SDS011;35317;51.978;6.296;2022-12-07T01:48:16;32.88;;;15.88;;
49440;SDS011;35317;51.978;6.296;2022-12-07T01:53:24;29.92;;;15.48;;
49440;SDS011;35317;51.978;6.296;2022-12-07T02:03:37;28.45;;;15.55;;
49440;SDS011;35317;51.978;6.296;2022-12-07T02:08:40;33.80;;;16.80;;
49440;SDS011;35317;51.978;6.296;2022-12-07T02:13:42;36.65;;;16.65;;
49440;SDS011;35317;51.978;6.296;2022-12-07T02:30:19;34.10;;;18.15;;
49440;SDS011;35317;51.978;6.296;2022-12-07T02:35:32;37.03;;;17.65;;
49440;SDS011;35317;51.978;6.296;2022-12-07T02:40:52;39.42;;;18.65;;
49440;SDS011;35317;51.978;6.296;2022-12-07T02:45:59;38.83;;;19.90;;
49440;SDS011;35317;51.978;6.296;2022-12-07T02:51:08;44.55;;;19.25;;
49440;SDS011;35317;51.978;6.296;2022-12-07T02:56:19;42.53;;;19.08;;
49440;SDS011;35317;51.978;6.296;2022-12-07T03:07:05;45.03;;;20.35;;
49440;SDS011;35317;51.978;6.296;2022-12-07T03:12:44;41.28;;;19.88;;
49440;SDS011;35317;51.978;6.296;2022-12-07T03:18:24;43.92;;;20.02;;
49440;SDS011;35317;51.978;6.296;2022-12-07T03:23:29;47.20;;;20.88;;
49440;SDS011;35317;51.978;6.296;2022-12-07T03:28:36;46.35;;;20.05;;
49440;SDS011;35317;51.978;6.296;2022-12-07T03:34:02;42.95;;;20.67;;
49440;SDS011;35317;51.978;6.296;2022-12-07T03:44:29;42.40;;;19.80;;
49440;SDS011;35317;51.978;6.296;2022-12-07T03:54:44;39.75;;;18.42;;
49440;SDS011;35317;51.978;6.296;2022-12-07T03:59:54;35.17;;;17.65;;
49440;SDS011;35317;51.978;6.296;2022-12-07T04:04:56;33.60;;;18.08;;
49440;SDS011;35317;51.978;6.296;2022-12-07T04:09:56;37.22;;;17.17;;
49440;SDS011;35317;51.978;6.296;2022-12-07T04:14:57;35.60;;;17.92;;
49440;SDS011;35317;51.978;6.296;2022-12-07T04:19:58;36.50;;;16.02;;
49440;SDS011;35317;51.978;6.296;2022-12-07T04:24:59;31.42;;;16.15;;
49440;SDS011;35317;51.978;6.296;2022-12-07T04:29:59;31.90;;;14.25;;
49440;SDS011;35317;51.978;6.296;2022-12-07T04:35:00;33.00;;;14.30;;
49440;SDS011;35317;51.978;6.296;2022-12-07T04:40:01;34.40;;;14.40;;
49440;SDS011;35317;51.978;6.296;2022-12-07T04:45:02;36.42;;;15.10;;
49440;SDS011;35317;51.978;6.296;2022-12-07T04:50:03;29.77;;;14.43;;
49440;SDS011;35317;51.978;6.296;2022-12-07T04:55:05;31.02;;;15.38;;
49440;SDS011;35317;51.978;6.296;2022-12-07T05:00:06;33.15;;;16.05;;
49440;SDS011;35317;51.978;6.296;2022-12-07T05:05:08;35.47;;;15.40;;
49440;SDS011;35317;51.978;6.296;2022-12-07T05:10:08;39.45;;;14.77;;
49440;SDS011;35317;51.978;6.296;2022-12-07T05:15:10;38.80;;;14.95;;
49440;SDS011;35317;51.978;6.296;2022-12-07T05:20:11;30.85;;;14.57;;
49440;SDS011;35317;51.978;6.296;2022-12-07T05:25:12;36.30;;;16.45;;
49440;SDS011;35317;51.978;6.296;2022-12-07T05:30:12;34.55;;;16.42;;
49440;SDS011;35317;51.978;6.296;2022-12-07T05:35:13;40.65;;;16.58;;
49440;SDS011;35317;51.978;6.296;2022-12-07T05:40:14;32.22;;;15.18;;
49440;SDS011;35317;51.978;6.296;2022-12-07T05:45:16;41.03;;;15.95;;
49440;SDS011;35317;51.978;6.296;2022-12-07T05:50:16;32.60;;;13.70;;
49440;SDS011;35317;51.978;6.296;2022-12-07T05:55:17;33.22;;;15.68;;
49440;SDS011;35317;51.978;6.296;2022-12-07T06:00:18;39.05;;;15.57;;
49440;SDS011;35317;51.978;6.296;2022-12-07T06:05:19;29.60;;;13.43;;
49440;SDS011;35317;51.978;6.296;2022-12-07T06:10:20;24.63;;;13.10;;
49440;SDS011;35317;51.978;6.296;2022-12-07T06:15:20;28.67;;;13.70;;
49440;SDS011;35317;51.978;6.296;2022-12-07T06:20:23;34.80;;;13.50;;
49440;SDS011;35317;51.978;6.296;2022-12-07T06:25:23;37.42;;;13.60;;
49440;SDS011;35317;51.978;6.296;2022-12-07T06:30:24;31.40;;;12.57;;
49440;SDS011;35317;51.978;6.296;2022-12-07T06:35:25;34.78;;;13.48;;
49440;SDS011;35317;51.978;6.296;2022-12-07T06:40:25;26.55;;;12.10;;
49440;SDS011;35317;51.978;6.296;2022-12-07T06:45:26;26.92;;;11.90;;
49440;SDS011;35317;51.978;6.296;2022-12-07T06:50:27;23.38;;;11.55;;
49440;SDS011;35317;51.978;6.296;2022-12-07T06:55:28;32.17;;;11.55;;
49440;SDS011;35317;51.978;6.296;2022-12-07T07:00:29;21.73;;;11.25;;
49440;SDS011;35317;51.978;6.296;2022-12-07T07:05:30;23.75;;;10.07;;
49440;SDS011;35317;51.978;6.296;2022-12-07T07:10:30;25.05;;;10.23;;
49440;SDS011;35317;51.978;6.296;2022-12-07T07:15:31;25.27;;;11.85;;
49440;SDS011;35317;51.978;6.296;2022-12-07T07:20:33;24.75;;;10.73;;
49440;SDS011;35317;51.978;6.296;2022-12-07T07:25:34;27.92;;;12.40;;
49440;SDS011;35317;51.978;6.296;2022-12-07T07:30:35;24.08;;;11.13;;
49440;SDS011;35317;51.978;6.296;2022-12-07T07:35:36;21.70;;;10.35;;
49440;SDS011;35317;51.978;6.296;2022-12-07T07:40:37;27.38;;;11.02;;
49440;SDS011;35317;51.978;6.296;2022-12-07T07:45:38;24.95;;;11.75;;
49440;SDS011;35317;51.978;6.296;2022-12-07T07:50:39;30.02;;;11.35;;
49440;SDS011;35317;51.978;6.296;2022-12-07T07:55:39;26.30;;;10.02;;
49440;SDS011;35317;51.978;6.296;2022-12-07T08:00:40;24.60;;;10.02;;
49440;SDS011;35317;51.978;6.296;2022-12-07T08:05:41;23.83;;;10.23;;
49440;SDS011;35317;51.978;6.296;2022-12-07T08:10:41;22.42;;;8.93;;
49440;SDS011;35317;51.978;6.296;2022-12-07T08:15:43;23.58;;;9.18;;
49440;SDS011;35317;51.978;6.296;2022-12-07T08:20:47;23.77;;;9.32;;
49440;SDS011;35317;51.978;6.296;2022-12-07T08:25:48;27.73;;;9.70;;
49440;SDS011;35317;51.978;6.296;2022-12-07T08:30:48;21.63;;;7.93;;
49440;SDS011;35317;51.978;6.296;2022-12-07T08:35:49;20.95;;;7.47;;
49440;SDS011;35317;51.978;6.296;2022-12-07T08:40:56;15.68;;;6.38;;
49440;SDS011;35317;51.978;6.296;2022-12-07T08:51:17;16.98;;;6.10;;
49440;SDS011;35317;51.978;6.296;2022-12-07T08:56:19;21.83;;;5.80;;
49440;SDS011;35317;51.978;6.296;2022-12-07T09:01:21;16.05;;;6.32;;
49440;SDS011;35317;51.978;6.296;2022-12-07T09:06:22;23.38;;;6.30;;
49440;SDS011;35317;51.978;6.296;2022-12-07T09:11:23;17.13;;;5.68;;
49440;SDS011;35317;51.978;6.296;2022-12-07T09:16:24;20.38;;;6.22;;
49440;SDS011;35317;51.978;6.296;2022-12-07T09:21:25;12.00;;;5.05;;
49440;SDS011;35317;51.978;6.296;2022-12-07T09:26:25;12.48;;;4.80;;
49440;SDS011;35317;51.978;6.296;2022-12-07T09:31:26;15.63;;;4.90;;
49440;SDS011;35317;51.978;6.296;2022-12-07T09:36:28;17.60;;;4.25;;
49440;SDS011;35317;51.978;6.296;2022-12-07T09:41:29;10.70;;;3.75;;
49440;SDS011;35317;51.978;6.296;2022-12-07T09:46:35;12.02;;;4.20;;
49440;SDS011;35317;51.978;6.296;2022-12-07T09:51:39;13.48;;;2.67;;
49440;SDS011;35317;51.978;6.296;2022-12-07T09:56:40;11.27;;;3.90;;
49440;SDS011;35317;51.978;6.296;2022-12-07T10:01:41;11.80;;;2.60;;
49440;SDS011;35317;51.978;6.296;2022-12-07T10:06:42;12.15;;;2.60;;
49440;SDS011;35317;51.978;6.296;2022-12-07T10:12:00;9.15;;;2.10;;
49440;SDS011;35317;51.978;6.296;2022-12-07T10:22:36;11.48;;;2.40;;
49440;SDS011;35317;51.978;6.296;2022-12-07T10:27:37;16.58;;;2.78;;
49440;SDS011;35317;51.978;6.296;2022-12-07T10:32:38;12.25;;;2.55;;
49440;SDS011;35317;51.978;6.296;2022-12-07T10:37:39;9.40;;;2.85;;
49440;SDS011;35317;51.978;6.296;2022-12-07T10:42:41;8.40;;;2.47;;
49440;SDS011;35317;51.978;6.296;2022-12-07T10:53:27;9.68;;;2.95;;
49440;SDS011;35317;51.978;6.296;2022-12-07T10:58:44;9.35;;;3.17;;
49440;SDS011;35317;51.978;6.296;2022-12-07T11:15:22;11.93;;;3.00;;
49440;SDS011;35317;51.978;6.296;2022-12-07T11:20:44;12.70;;;3.40;;
49440;SDS011;35317;51.978;6.296;2022-12-07T11:25:56;15.70;;;3.83;;
49440;SDS011;35317;51.978;6.296;2022-12-07T11:31:22;14.93;;;3.70;;
49440;SDS011;35317;51.978;6.296;2022-12-07T11:36:40;10.02;;;3.22;;
49440;SDS011;35317;51.978;6.296;2022-12-07T11:41:44;9.68;;;2.40;;
49440;SDS011;35317;51.978;6.296;2022-12-07T11:52:00;13.02;;;3.95;;
49440;SDS011;35317;51.978;6.296;2022-12-07T11:57:05;18.40;;;4.88;;
49440;SDS011;35317;51.978;6.296;2022-12-07T12:02:16;11.82;;;4.72;;
49440;SDS011;35317;51.978;6.296;2022-12-07T12:07:27;17.98;;;4.13;;
49440;SDS011;35317;51.978;6.296;2022-12-07T12:24:09;11.30;;;2.97;;
49440;SDS011;35317;51.978;6.296;2022-12-07T12:29:19;10.57;;;2.33;;
49440;SDS011;35317;51.978;6.296;2022-12-07T12:45:18;9.85;;;2.00;;
49440;SDS011;35317;51.978;6.296;2022-12-07T13:00:42;10.23;;;2.53;;
49440;SDS011;35317;51.978;6.296;2022-12-07T13:05:44;13.98;;;3.50;;
49440;SDS011;35317;51.978;6.296;2022-12-07T13:10:45;14.05;;;2.95;;
49440;SDS011;35317;51.978;6.296;2022-12-07T13:31:27;12.75;;;2.10;;
49440;SDS011;35317;51.978;6.296;2022-12-07T13:36:36;10.75;;;2.45;;
49440;SDS011;35317;51.978;6.296;2022-12-07T13:41:41;7.80;;;2.40;;
49440;SDS011;35317;51.978;6.296;2022-12-07T13:46:44;9.98;;;2.63;;
49440;SDS011;35317;51.978;6.296;2022-12-07T13:52:11;9.15;;;2.35;;
49440;SDS011;35317;51.978;6.296;2022-12-07T13:57:20;8.73;;;2.67;;
49440;SDS011;35317;51.978;6.296;2022-12-07T14:02:26;8.90;;;2.03;;
49440;SDS011;35317;51.978;6.296;2022-12-07T14:07:28;11.15;;;2.38;;
49440;SDS011;35317;51.978;6.296;2022-12-07T14:12:29;13.15;;;2.88;;
49440;SDS011;35317;51.978;6.296;2022-12-07T14:17:33;12.02;;;2.92;;
49440;SDS011;35317;51.978;6.296;2022-12-07T14:22:37;14.27;;;3.70;;
49440;SDS011;35317;51.978;6.296;2022-12-07T14:27:39;11.68;;;3.55;;
49440;SDS011;35317;51.978;6.296;2022-12-07T14:32:52;14.57;;;3.60;;
49440;SDS011;35317;51.978;6.296;2022-12-07T14:37:57;14.52;;;4.70;;
49440;SDS011;35317;51.978;6.296;2022-12-07T14:43:05;15.15;;;4.20;;
49440;SDS011;35317;51.978;6.296;2022-12-07T14:48:13;10.23;;;2.70;;
49440;SDS011;35317;51.978;6.296;2022-12-07T14:53:16;12.80;;;2.20;;
49440;SDS011;35317;51.978;6.296;2022-12-07T14:58:19;6.15;;;2.25;;
49440;SDS011;35317;51.978;6.296;2022-12-07T15:03:20;8.13;;;1.67;;
49440;SDS011;35317;51.978;6.296;2022-12-07T15:08:21;9.40;;;3.00;;
49440;SDS011;35317;51.978;6.296;2022-12-07T15:13:22;12.45;;;2.60;;
49440;SDS011;35317;51.978;6.296;2022-12-07T15:18:41;6.72;;;1.55;;
49440;SDS011;35317;51.978;6.296;2022-12-07T15:23:42;6.82;;;1.70;;
49440;SDS011;35317;51.978;6.296;2022-12-07T15:28:46;5.20;;;1.83;;
49440;SDS011;35317;51.978;6.296;2022-12-07T15:33:47;8.50;;;2.42;;
49440;SDS011;35317;51.978;6.296;2022-12-07T15:38:48;7.72;;;2.25;;
49440;SDS011;35317;51.978;6.296;2022-12-07T15:43:49;8.15;;;2.92;;
49440;SDS011;35317;51.978;6.296;2022-12-07T15:49:11;15.85;;;6.90;;
49440;SDS011;35317;51.978;6.296;2022-12-07T15:54:27;12.18;;;3.00;;
49440;SDS011;35317;51.978;6.296;2022-12-07T15:59:29;10.73;;;3.20;;
49440;SDS011;35317;51.978;6.296;2022-12-07T16:04:30;7.28;;;2.75;;
49440;SDS011;35317;51.978;6.296;2022-12-07T16:09:30;8.68;;;2.97;;
49440;SDS011;35317;51.978;6.296;2022-12-07T16:14:31;9.52;;;2.90;;
49440;SDS011;35317;51.978;6.296;2022-12-07T16:19:33;11.65;;;4.05;;
49440;SDS011;35317;51.978;6.296;2022-12-07T16:24:36;9.60;;;3.72;;
49440;SDS011;35317;51.978;6.296;2022-12-07T16:29:36;11.98;;;5.80;;
49440;SDS011;35317;51.978;6.296;2022-12-07T16:34:38;9.52;;;3.30;;
49440;SDS011;35317;51.978;6.296;2022-12-07T16:39:39;7.47;;;3.60;;
49440;SDS011;35317;51.978;6.296;2022-12-07T16:44:40;10.63;;;3.60;;
49440;SDS011;35317;51.978;6.296;2022-12-07T16:49:42;7.43;;;3.20;;
49440;SDS011;35317;51.978;6.296;2022-12-07T16:54:43;7.53;;;2.90;;
49440;SDS011;35317;51.978;6.296;2022-12-07T16:59:44;4.82;;;1.90;;
49440;SDS011;35317;51.978;6.296;2022-12-07T17:04:45;4.75;;;1.30;;
49440;SDS011;35317;51.978;6.296;2022-12-07T17:09:46;5.05;;;1.13;;
49440;SDS011;35317;51.978;6.296;2022-12-07T17:14:46;3.25;;;0.85;;
49440;SDS011;35317;51.978;6.296;2022-12-07T17:20:06;4.25;;;1.60;;
49440;SDS011;35317;51.978;6.296;2022-12-07T17:25:07;6.93;;;3.85;;
49440;SDS011;35317;51.978;6.296;2022-12-07T17:30:10;7.15;;;2.90;;
49440;SDS011;35317;51.978;6.296;2022-12-07T17:35:12;4.37;;;2.37;;
49440;SDS011;35317;51.978;6.296;2022-12-07T17:40:14;6.55;;;2.80;;
49440;SDS011;35317;51.978;6.296;2022-12-07T17:45:15;7.72;;;3.65;;
49440;SDS011;35317;51.978;6.296;2022-12-07T17:50:16;10.40;;;4.10;;
49440;SDS011;35317;51.978;6.296;2022-12-07T17:55:37;9.43;;;4.70;;
49440;SDS011;35317;51.978;6.296;2022-12-07T18:00:39;15.02;;;4.40;;
49440;SDS011;35317;51.978;6.296;2022-12-07T18:05:42;14.68;;;4.60;;
49440;SDS011;35317;51.978;6.296;2022-12-07T18:10:44;14.25;;;6.03;;
49440;SDS011;35317;51.978;6.296;2022-12-07T18:15:45;26.38;;;11.38;;
49440;SDS011;35317;51.978;6.296;2022-12-07T18:20:46;18.05;;;9.85;;
49440;SDS011;35317;51.978;6.296;2022-12-07T18:25:47;24.40;;;11.73;;
49440;SDS011;35317;51.978;6.296;2022-12-07T18:30:49;21.45;;;10.55;;
49440;SDS011;35317;51.978;6.296;2022-12-07T18:35:52;16.87;;;10.00;;
49440;SDS011;35317;51.978;6.296;2022-12-07T18:40:53;24.17;;;11.23;;
49440;SDS011;35317;51.978;6.296;2022-12-07T18:45:54;18.95;;;10.48;;
49440;SDS011;35317;51.978;6.296;2022-12-07T18:50:59;25.05;;;12.80;;
49440;SDS011;35317;51.978;6.296;2022-12-07T18:56:06;18.73;;;10.05;;
49440;SDS011;35317;51.978;6.296;2022-12-07T19:01:31;19.33;;;10.60;;
49440;SDS011;35317;51.978;6.296;2022-12-07T19:06:31;22.35;;;10.90;;
49440;SDS011;35317;51.978;6.296;2022-12-07T19:11:33;20.75;;;10.15;;
49440;SDS011;35317;51.978;6.296;2022-12-07T19:16:50;20.05;;;11.20;;
49440;SDS011;35317;51.978;6.296;2022-12-07T19:21:53;24.23;;;10.85;;
49440;SDS011;35317;51.978;6.296;2022-12-07T19:26:54;19.33;;;9.52;;
49440;SDS011;35317;51.978;6.296;2022-12-07T19:31:56;23.63;;;10.98;;
49440;SDS011;35317;51.978;6.296;2022-12-07T19:36:58;24.92;;;10.23;;
49440;SDS011;35317;51.978;6.296;2022-12-07T19:41:59;18.10;;;10.10;;
49440;SDS011;35317;51.978;6.296;2022-12-07T19:47:01;22.65;;;10.70;;
49440;SDS011;35317;51.978;6.296;2022-12-07T19:52:04;20.30;;;9.60;;
49440;SDS011;35317;51.978;6.296;2022-12-07T19:57:07;17.80;;;9.90;;
49440;SDS011;35317;51.978;6.296;2022-12-07T20:02:14;19.40;;;11.57;;
49440;SDS011;35317;51.978;6.296;2022-12-07T20:07:15;15.60;;;8.02;;
49440;SDS011;35317;51.978;6.296;2022-12-07T20:12:15;16.63;;;8.48;;
49440;SDS011;35317;51.978;6.296;2022-12-07T20:17:35;8.55;;;5.47;;
49440;SDS011;35317;51.978;6.296;2022-12-07T20:22:35;14.05;;;6.63;;
49440;SDS011;35317;51.978;6.296;2022-12-07T20:27:36;11.70;;;6.22;;
49440;SDS011;35317;51.978;6.296;2022-12-07T20:32:37;16.50;;;7.72;;
49440;SDS011;35317;51.978;6.296;2022-12-07T20:37:38;14.23;;;7.68;;
49440;SDS011;35317;51.978;6.296;2022-12-07T20:42:39;14.48;;;7.57;;
49440;SDS011;35317;51.978;6.296;2022-12-07T20:47:39;17.38;;;8.45;;
49440;SDS011;35317;51.978;6.296;2022-12-07T20:52:40;16.48;;;7.90;;
49440;SDS011;35317;51.978;6.296;2022-12-07T20:57:41;16.45;;;9.00;;
49440;SDS011;35317;51.978;6.296;2022-12-07T21:02:42;16.05;;;9.23;;
49440;SDS011;35317;51.978;6.296;2022-12-07T21:07:43;21.05;;;11.15;;
49440;SDS011;35317;51.978;6.296;2022-12-07T21:12:45;17.95;;;12.68;;
49440;SDS011;35317;51.978;6.296;2022-12-07T21:17:45;20.88;;;13.25;;
49440;SDS011;35317;51.978;6.296;2022-12-07T21:22:46;27.65;;;13.90;;
49440;SDS011;35317;51.978;6.296;2022-12-07T21:27:47;33.40;;;15.57;;
49440;SDS011;35317;51.978;6.296;2022-12-07T21:32:48;29.95;;;17.80;;
49440;SDS011;35317;51.978;6.296;2022-12-07T21:37:49;30.42;;;19.70;;
49440;SDS011;35317;51.978;6.296;2022-12-07T21:42:52;30.13;;;18.33;;
49440;SDS011;35317;51.978;6.296;2022-12-07T21:47:53;29.23;;;18.80;;
49440;SDS011;35317;51.978;6.296;2022-12-07T21:52:53;29.77;;;18.50;;
49440;SDS011;35317;51.978;6.296;2022-12-07T21:57:54;34.17;;;20.23;;
49440;SDS011;35317;51.978;6.296;2022-12-07T22:02:55;37.92;;;20.38;;
49440;SDS011;35317;51.978;6.296;2022-12-07T22:07:55;33.55;;;20.55;;
49440;SDS011;35317;51.978;6.296;2022-12-07T22:12:57;37.97;;;21.90;;
49440;SDS011;35317;51.978;6.296;2022-12-07T22:17:59;35.97;;;20.70;;
49440;SDS011;35317;51.978;6.296;2022-12-07T22:22:59;29.13;;;17.50;;
49440;SDS011;35317;51.978;6.296;2022-12-07T22:28:00;30.65;;;17.70;;
49440;SDS011;35317;51.978;6.296;2022-12-07T22:33:01;26.10;;;18.58;;
49440;SDS011;35317;51.978;6.296;2022-12-07T22:38:02;34.88;;;18.95;;
49440;SDS011;35317;51.978;6.296;2022-12-07T22:43:03;29.13;;;17.17;;
49440;SDS011;35317;51.978;6.296;2022-12-07T22:48:04;25.75;;;16.17;;
49440;SDS011;35317;51.978;6.296;2022-12-07T22:53:05;31.48;;;16.77;;
49440;SDS011;35317;51.978;6.296;2022-12-07T22:58:06;28.30;;;18.60;;
49440;SDS011;35317;51.978;6.296;2022-12-07T23:03:07;34.80;;;18.63;;
49440;SDS011;35317;51.978;6.296;2022-12-07T23:08:08;31.98;;;20.48;;
49440;SDS011;35317;51.978;6.296;2022-12-07T23:13:11;33.10;;;21.83;;
49440;SDS011;35317;51.978;6.296;2022-12-07T23:18:31;42.30;;;22.88;;
49440;SDS011;35317;51.978;6.296;2022-12-07T23:23:32;44.80;;;25.88;;
49440;SDS011;35317;51.978;6.296;2022-12-07T23:28:33;49.53;;;27.50;;
49440;SDS011;35317;51.978;6.296;2022-12-07T23:33:34;54.45;;;27.65;;
49440;SDS011;35317;51.978;6.296;2022-12-07T23:38:36;62.42;;;32.13;;
49440;SDS011;35317;51.978;6.296;2022-12-07T23:43:37;56.80;;;31.70;;
49440;SDS011;35317;51.978;6.296;2022-12-07T23:48:39;55.90;;;30.48;;
49440;SDS011;35317;51.978;6.296;2022-12-07T23:53:42;53.90;;;31.40;;
49440;SDS011;35317;51.978;6.296;2022-12-07T23:58:45;61.20;;;30.38;;
